Time;durP1;ratioP1;P1;durP2;ratioP2;P2;SDS_P1;SDS_P2;PMS_P1;PMS_P2;Temp;Humidity;BMP_temperature;BMP_pressure;BME280_temperature;BME280_humidity;BME280_pressure;Samples;Min_cycle;Max_cycle;Signal;HPM_P1;HPM_P2
2022/06/15 00:00:23;;;;;;;4.78;3.30;;;;;;;;;;4987850;28;20140;-85
2022/06/15 00:02:49;;;;;;;5.03;3.17;;;;;;;;;;4987130;28;20104;-85
2022/06/15 00:05:17;;;;;;;5.45;2.88;;;;;;;;;;5004727;28;20080;-85
2022/06/15 00:07:50;;;;;;;4.68;2.90;;;;;;;;;;4989764;28;20456;-85
2022/06/15 00:10:37;;;;;;;5.20;3.50;;;;;;;;;;4987336;28;20048;-85
2022/06/15 00:13:03;;;;;;;6.43;3.10;;;;;;;;;;5004317;28;20136;-85
2022/06/15 00:15:29;;;;;;;6.22;3.00;;;;;;;;;;4970892;28;20045;-85
2022/06/15 00:17:55;;;;;;;5.55;3.72;;;;;;;;;;4986610;28;20029;-84
2022/06/15 00:20:21;;;;;;;5.10;3.50;;;;;;;;;;4986933;28;20406;-85
2022/06/15 00:22:50;;;;;;;7.50;3.78;;;;;;;;;;4987611;28;20080;-84
2022/06/15 00:25:16;;;;;;;7.78;3.58;;;;;;;;;;4989765;28;20084;-85
2022/06/15 00:27:42;;;;;;;5.43;3.50;;;;;;;;;;4986925;28;20037;-85
2022/06/15 00:30:08;;;;;;;8.50;3.42;;;;;;;;;;4989629;28;20044;-84
2022/06/15 00:32:34;;;;;;;4.22;3.10;;;;;;;;;;4986633;28;20038;-85
2022/06/15 00:35:03;;;;;;;9.00;3.78;;;;;;;;;;4988107;28;20048;-84
2022/06/15 00:37:29;;;;;;;4.90;3.75;;;;;;;;;;4988353;28;20069;-85
2022/06/15 00:39:55;;;;;;;14.65;4.93;;;;;;;;;;4986780;28;20495;-85
2022/06/15 00:42:21;;;;;;;6.38;4.43;;;;;;;;;;4980153;28;20038;-85
2022/06/15 00:44:49;;;;;;;6.68;4.20;;;;;;;;;;4978194;28;20128;-85
2022/06/15 00:47:25;;;;;;;8.07;4.18;;;;;;;;;;4999149;28;20041;-85
2022/06/15 00:50:01;;;;;;;10.98;4.80;;;;;;;;;;4982368;28;20037;-85
2022/06/15 00:52:34;;;;;;;9.70;5.28;;;;;;;;;;4982966;28;20375;-85
2022/06/15 00:55:04;;;;;;;11.25;4.45;;;;;;;;;;4985605;28;20275;-85
2022/06/15 00:57:30;;;;;;;9.57;4.88;;;;;;;;;;4983342;28;20037;-85
2022/06/15 00:59:58;;;;;;;10.88;5.22;;;;;;;;;;4985431;28;20088;-85
2022/06/15 01:02:25;;;;;;;9.50;4.85;;;;;;;;;;4985527;28;20470;-85
2022/06/15 01:04:54;;;;;;;11.07;4.82;;;;;;;;;;4987372;28;20038;-85
2022/06/15 01:07:26;;;;;;;9.23;4.80;;;;;;;;;;4984931;28;20041;-84
2022/06/15 01:10:18;;;;;;;7.03;3.78;;;;;;;;;;4988709;28;20474;-85
2022/06/15 01:12:52;;;;;;;10.02;3.80;;;;;;;;;;4958789;28;20049;-84
2022/06/15 01:15:25;;;;;;;11.85;5.15;;;;;;;;;;4989475;28;20081;-85
2022/06/15 01:18:10;;;;;;;9.75;5.75;;;;;;;;;;4990503;28;20038;-85
2022/06/15 01:20:36;;;;;;;11.38;5.65;;;;;;;;;;4990962;28;20305;-85
2022/06/15 01:23:11;;;;;;;7.93;4.13;;;;;;;;;;4989635;28;20125;-85
2022/06/15 01:25:42;;;;;;;10.00;4.70;;;;;;;;;;5004632;28;20401;-84
2022/06/15 01:28:08;;;;;;;;;;;;;;;;;;4990814;28;20034;-85
2022/06/15 01:30:47;;;;;;;8.48;4.32;;;;;;;;;;4988647;28;20016;-84
2022/06/15 01:33:25;;;;;;;11.43;5.18;;;;;;;;;;4988659;28;20041;-85
2022/06/15 01:35:55;;;;;;;10.73;5.28;;;;;;;;;;4988791;28;20045;-85
2022/06/15 01:38:26;;;;;;;11.07;4.65;;;;;;;;;;4986882;28;20124;-85
2022/06/15 01:40:58;;;;;;;10.82;4.22;;;;;;;;;;4988466;28;20042;-86
2022/06/15 01:43:27;;;;;;;10.45;4.55;;;;;;;;;;4989677;28;20080;-85
2022/06/15 01:45:54;;;;;;;8.95;4.22;;;;;;;;;;4990419;28;20064;-85
2022/06/15 01:48:20;;;;;;;9.18;3.85;;;;;;;;;;4988926;28;20449;-85
2022/06/15 01:50:49;;;;;;;10.60;4.32;;;;;;;;;;4989342;28;20053;-85
2022/06/15 01:53:19;;;;;;;7.65;3.90;;;;;;;;;;4988229;28;20064;-85
2022/06/15 01:55:53;;;;;;;11.30;4.75;;;;;;;;;;4988427;28;20038;-85
2022/06/15 01:58:23;;;;;;;8.88;4.68;;;;;;;;;;4986117;28;20088;-85
2022/06/15 02:00:58;;;;;;;8.57;4.50;;;;;;;;;;4998009;28;20131;-85
2022/06/15 02:03:28;;;;;;;7.70;4.20;;;;;;;;;;4997246;28;20054;-85
2022/06/15 02:06:09;;;;;;;6.55;4.43;;;;;;;;;;4994926;28;20045;-85
2022/06/15 02:08:38;;;;;;;10.40;4.78;;;;;;;;;;4982824;28;20073;-85
2022/06/15 02:11:08;;;;;;;9.55;4.43;;;;;;;;;;4987006;28;20038;-85
2022/06/15 02:13:41;;;;;;;6.43;3.88;;;;;;;;;;4986702;28;20421;-85
2022/06/15 02:16:10;;;;;;;7.63;4.88;;;;;;;;;;4984087;28;20030;-85
2022/06/15 02:18:37;;;;;;;7.22;4.35;;;;;;;;;;4986510;28;20454;-85
2022/06/15 02:21:09;;;;;;;7.13;3.78;;;;;;;;;;4990752;28;20068;-84
2022/06/15 02:23:37;;;;;;;4.57;2.80;;;;;;;;;;4993552;28;20946;-85
2022/06/15 02:26:03;;;;;;;5.53;3.50;;;;;;;;;;4978422;28;20042;-84
2022/06/15 02:28:33;;;;;;;5.13;3.38;;;;;;;;;;4978423;28;20060;-85
2022/06/15 02:30:59;;;;;;;6.32;3.55;;;;;;;;;;4977835;28;20057;-85
2022/06/15 02:33:27;;;;;;;5.97;3.10;;;;;;;;;;4978171;28;20042;-85
2022/06/15 02:35:54;;;;;;;3.85;3.20;;;;;;;;;;4978096;28;20468;-84
2022/06/15 02:38:20;;;;;;;3.22;2.30;;;;;;;;;;4977995;28;20043;-85
2022/06/15 02:40:46;;;;;;;3.85;2.58;;;;;;;;;;4977872;28;20421;-84
2022/06/15 02:43:13;;;;;;;2.58;1.88;;;;;;;;;;4980823;28;20057;-85
2022/06/15 02:45:40;;;;;;;2.60;2.30;;;;;;;;;;4997562;28;20048;-84
2022/06/15 02:48:07;;;;;;;4.82;2.50;;;;;;;;;;4984808;28;20062;-84
2022/06/15 02:50:40;;;;;;;3.40;2.80;;;;;;;;;;4993998;28;20150;-85
2022/06/15 02:53:09;;;;;;;5.13;3.25;;;;;;;;;;4978036;28;20114;-84
2022/06/15 02:55:35;;;;;;;7.28;3.72;;;;;;;;;;4983444;28;20123;-85
2022/06/15 02:58:16;;;;;;;6.95;4.05;;;;;;;;;;4988917;28;20474;-85
2022/06/15 03:00:42;;;;;;;7.32;3.75;;;;;;;;;;4996950;28;20141;-85
2022/06/15 03:03:08;;;;;;;6.72;3.97;;;;;;;;;;4997032;28;20176;-83
2022/06/15 03:05:34;;;;;;;5.68;3.47;;;;;;;;;;4996141;28;20505;-85
2022/06/15 03:08:00;;;;;;;5.05;3.15;;;;;;;;;;4984003;28;20498;-84
2022/06/15 03:10:26;;;;;;;5.60;3.33;;;;;;;;;;4984151;28;20034;-84
2022/06/15 03:12:53;;;;;;;6.70;4.13;;;;;;;;;;4983040;28;20461;-84
2022/06/15 03:15:19;;;;;;;5.97;4.05;;;;;;;;;;4985410;28;20048;-85
2022/06/15 03:17:45;;;;;;;7.00;4.35;;;;;;;;;;5001135;28;20042;-84
2022/06/15 03:20:12;;;;;;;7.10;4.82;;;;;;;;;;4983748;28;20599;-83
2022/06/15 03:22:38;;;;;;;7.57;4.93;;;;;;;;;;4987092;28;20120;-83
2022/06/15 03:25:04;;;;;;;8.63;4.95;;;;;;;;;;4995648;28;20129;-84
2022/06/15 03:27:30;;;;;;;8.07;4.57;;;;;;;;;;4995758;28;20042;-83
2022/06/15 03:29:57;;;;;;;9.63;4.38;;;;;;;;;;4995328;28;20053;-83
2022/06/15 03:32:26;;;;;;;8.60;4.82;;;;;;;;;;5011578;28;20124;-83
2022/06/15 03:34:52;;;;;;;6.78;4.18;;;;;;;;;;4995396;28;20583;-84
2022/06/15 03:37:17;;;;;;;6.88;4.03;;;;;;;;;;4995299;28;20042;-84
2022/06/15 03:39:43;;;;;;;7.60;3.72;;;;;;;;;;4995144;28;20033;-84
2022/06/15 03:42:20;;;;;;;6.00;3.60;;;;;;;;;;5011923;28;20496;-83
2022/06/15 03:44:46;;;;;;;5.95;2.83;;;;;;;;;;4995267;28;20038;-84
2022/06/15 03:47:13;;;;;;;6.20;3.42;;;;;;;;;;5011697;28;20033;-84
2022/06/15 03:49:39;;;;;;;4.53;3.20;;;;;;;;;;5011328;28;20533;-84
2022/06/15 03:52:05;;;;;;;7.00;3.60;;;;;;;;;;4994927;28;20038;-84
2022/06/15 03:54:31;;;;;;;5.45;3.83;;;;;;;;;;4994831;28;20069;-84
2022/06/15 03:56:58;;;;;;;5.70;3.72;;;;;;;;;;4995121;28;20159;-83
2022/06/15 03:59:24;;;;;;;4.30;1.98;;;;;;;;;;5011093;28;20041;-84
2022/06/15 04:01:50;;;;;;;4.10;2.13;;;;;;;;;;4994723;28;20065;-84
2022/06/15 04:04:16;;;;;;;3.95;2.25;;;;;;;;;;4994757;28;20049;-84
2022/06/15 04:06:44;;;;;;;3.13;1.90;;;;;;;;;;4994820;28;20038;-84
2022/06/15 04:09:10;;;;;;;3.10;2.30;;;;;;;;;;4994836;28;20041;-84
2022/06/15 04:14:21;;;;;;;3.60;2.30;;;;;;;;;;5010904;28;20042;-84
2022/06/15 04:16:53;;;;;;;4.30;2.70;;;;;;;;;;4977477;28;20506;-84
2022/06/15 04:19:19;;;;;;;3.13;2.20;;;;;;;;;;4974902;28;20434;-84
2022/06/15 04:21:45;;;;;;;4.35;2.70;;;;;;;;;;4975101;28;20047;-84
2022/06/15 04:24:11;;;;;;;7.70;4.70;;;;;;;;;;4976443;28;20457;-84
2022/06/15 04:26:38;;;;;;;8.82;5.18;;;;;;;;;;4976271;28;20486;-84
2022/06/15 04:29:04;;;;;;;7.15;4.97;;;;;;;;;;4976208;28;20057;-84
2022/06/15 04:31:30;;;;;;;10.07;4.78;;;;;;;;;;4976252;28;20042;-84
2022/06/15 04:33:56;;;;;;;7.93;4.72;;;;;;;;;;4976086;28;20041;-84
2022/06/15 04:36:23;;;;;;;7.22;4.65;;;;;;;;;;4976159;28;20129;-84
2022/06/15 04:38:49;;;;;;;7.00;4.70;;;;;;;;;;4976319;28;20049;-84
2022/06/15 04:41:15;;;;;;;8.60;4.88;;;;;;;;;;4976349;28;20129;-84
2022/06/15 04:43:41;;;;;;;8.68;5.28;;;;;;;;;;4976090;28;20049;-83
2022/06/15 04:46:07;;;;;;;8.10;4.88;;;;;;;;;;4977461;28;20045;-84
2022/06/15 04:48:33;;;;;;;8.90;5.55;;;;;;;;;;4979120;28;20046;-85
2022/06/15 04:51:09;;;;;;;7.20;5.15;;;;;;;;;;4978882;28;20049;-84
2022/06/15 04:53:35;;;;;;;8.52;5.28;;;;;;;;;;4978778;28;20042;-84
2022/06/15 04:56:01;;;;;;;12.00;5.40;;;;;;;;;;4978821;28;20573;-84
2022/06/15 04:58:27;;;;;;;8.80;5.22;;;;;;;;;;4978856;28;20413;-84
2022/06/15 05:00:53;;;;;;;8.68;5.72;;;;;;;;;;4978164;28;20068;-84
2022/06/15 05:03:20;;;;;;;7.57;5.47;;;;;;;;;;4978616;28;20081;-84
2022/06/15 05:05:46;;;;;;;9.65;5.55;;;;;;;;;;4978515;28;20042;-84
2022/06/15 05:08:12;;;;;;;8.18;5.15;;;;;;;;;;4978887;28;20129;-84
2022/06/15 05:10:37;;;;;;;10.15;4.97;;;;;;;;;;4978334;28;20093;-84
2022/06/15 05:13:04;;;;;;;9.18;5.47;;;;;;;;;;4978422;28;20486;-84
2022/06/15 05:15:30;;;;;;;12.45;6.07;;;;;;;;;;4978544;28;20133;-84
2022/06/15 05:18:00;;;;;;;9.95;5.43;;;;;;;;;;4978566;28;20125;-84
2022/06/15 05:20:26;;;;;;;11.93;6.03;;;;;;;;;;4978267;28;20049;-84
2022/06/15 05:22:56;;;;;;;9.98;5.47;;;;;;;;;;4978314;28;20042;-84
2022/06/15 05:25:23;;;;;;;7.23;4.83;;;;;;;;;;4978214;28;20398;-84
2022/06/15 05:27:49;;;;;;;10.43;5.32;;;;;;;;;;4977793;28;20290;-84
2022/06/15 05:30:15;;;;;;;9.68;6.00;;;;;;;;;;4977719;28;20453;-84
2022/06/15 05:32:41;;;;;;;8.63;5.35;;;;;;;;;;4974435;28;20042;-85
2022/06/15 05:35:08;;;;;;;10.10;5.45;;;;;;;;;;4974062;28;20042;-84
2022/06/15 05:37:34;;;;;;;9.05;4.53;;;;;;;;;;4974171;28;20057;-84
2022/06/15 05:40:00;;;;;;;11.90;7.03;;;;;;;;;;4990431;28;20053;-85
2022/06/15 05:42:30;;;;;;;10.55;5.82;;;;;;;;;;4974251;28;20402;-85
2022/06/15 05:44:56;;;;;;;10.55;5.70;;;;;;;;;;4974551;28;20380;-85
2022/06/15 05:47:22;;;;;;;12.80;5.22;;;;;;;;;;4990335;28;20039;-85
2022/06/15 05:49:49;;;;;;;7.15;5.20;;;;;;;;;;4974134;28;20135;-85
2022/06/15 05:52:15;;;;;;;7.40;4.93;;;;;;;;;;4974774;28;20163;-85
2022/06/15 05:54:41;;;;;;;8.30;4.47;;;;;;;;;;4974021;28;20074;-85
2022/06/15 05:57:11;;;;;;;10.38;4.57;;;;;;;;;;4974091;28;20118;-85
2022/06/15 05:59:37;;;;;;;7.88;4.28;;;;;;;;;;4993245;28;20047;-85
2022/06/15 06:02:03;;;;;;;5.65;3.40;;;;;;;;;;4978004;28;20069;-84
2022/06/15 06:04:29;;;;;;;7.22;4.03;;;;;;;;;;4993831;28;20454;-84
2022/06/15 06:06:55;;;;;;;6.75;3.35;;;;;;;;;;4977249;28;20042;-86
2022/06/15 06:09:21;;;;;;;5.28;3.00;;;;;;;;;;4977193;28;20035;-85
2022/06/15 06:11:47;;;;;;;3.88;3.00;;;;;;;;;;4977281;28;20052;-85
2022/06/15 06:14:13;;;;;;;4.90;3.15;;;;;;;;;;4977238;28;20039;-84
2022/06/15 06:16:39;;;;;;;7.53;5.00;;;;;;;;;;4977319;28;20502;-85
2022/06/15 06:19:05;;;;;;;7.72;3.53;;;;;;;;;;4976939;28;20069;-86
2022/06/15 06:21:31;;;;;;;6.95;4.25;;;;;;;;;;4977004;28;20042;-85
2022/06/15 06:23:57;;;;;;;6.95;5.47;;;;;;;;;;4977232;28;20511;-86
2022/06/15 06:26:24;;;;;;;9.00;5.20;;;;;;;;;;4976868;28;20051;-84
2022/06/15 06:28:50;;;;;;;7.05;4.47;;;;;;;;;;4977125;28;20043;-86
2022/06/15 06:31:19;;;;;;;7.18;4.80;;;;;;;;;;4976770;28;20038;-85
2022/06/15 06:33:45;;;;;;;6.93;3.80;;;;;;;;;;4976704;28;20046;-86
2022/06/15 06:36:35;;;;;;;5.88;3.33;;;;;;;;;;4976606;28;20046;-84
2022/06/15 06:39:02;;;;;;;7.72;4.15;;;;;;;;;;4968959;28;20046;-86
2022/06/15 06:41:29;;;;;;;7.75;4.13;;;;;;;;;;4976674;28;20425;-84
2022/06/15 06:43:55;;;;;;;5.80;3.45;;;;;;;;;;4992990;28;20486;-86
2022/06/15 06:46:21;;;;;;;5.40;3.90;;;;;;;;;;4976554;28;20445;-86
2022/06/15 06:48:48;;;;;;;7.85;3.58;;;;;;;;;;4992719;28;20049;-86
2022/06/15 06:51:14;;;;;;;6.47;4.28;;;;;;;;;;4976497;28;20050;-86
2022/06/15 06:53:40;;;;;;;6.10;3.85;;;;;;;;;;4976477;28;20042;-85
2022/06/15 06:56:07;;;;;;;6.22;3.72;;;;;;;;;;4976478;28;20533;-85
2022/06/15 06:58:33;;;;;;;5.82;3.10;;;;;;;;;;4960398;28;20042;-84
2022/06/15 07:00:59;;;;;;;5.00;2.80;;;;;;;;;;4976001;28;20157;-87
2022/06/15 07:03:26;;;;;;;6.78;3.70;;;;;;;;;;4976209;28;20061;-84
2022/06/15 07:05:52;;;;;;;5.38;2.70;;;;;;;;;;4992382;28;20137;-84
2022/06/15 07:08:18;;;;;;;5.25;2.75;;;;;;;;;;4975749;28;20530;-86
2022/06/15 07:10:47;;;;;;;5.20;2.72;;;;;;;;;;4976147;28;20051;-86
2022/06/15 07:13:13;;;;;;;4.25;2.83;;;;;;;;;;4976545;28;20394;-85
2022/06/15 07:15:39;;;;;;;4.28;2.40;;;;;;;;;;4976425;28;20046;-88
2022/06/15 07:18:05;;;;;;;5.18;2.90;;;;;;;;;;4976424;28;20050;-88
2022/06/15 07:20:32;;;;;;;3.95;2.40;;;;;;;;;;4976238;28;20039;-86
2022/06/15 07:22:58;;;;;;;6.50;3.30;;;;;;;;;;4975846;28;20042;-86
2022/06/15 07:25:27;;;;;;;5.95;2.58;;;;;;;;;;4975914;28;20424;-88
2022/06/15 07:27:53;;;;;;;6.90;2.90;;;;;;;;;;4992398;28;20041;-87
2022/06/15 07:30:22;;;;;;;5.75;2.80;;;;;;;;;;4992065;28;20157;-87
2022/06/15 07:32:48;;;;;;;6.38;3.10;;;;;;;;;;4975796;28;21005;-86
2022/06/15 07:35:16;;;;;;;7.05;3.05;;;;;;;;;;4975893;28;20125;-84
2022/06/15 07:37:42;;;;;;;5.85;3.22;;;;;;;;;;4976008;28;20081;-86
2022/06/15 07:40:08;;;;;;;8.43;3.70;;;;;;;;;;4975969;28;20410;-86
2022/06/15 07:42:34;;;;;;;7.25;3.67;;;;;;;;;;4975743;28;20053;-86
2022/06/15 07:45:00;;;;;;;5.10;3.08;;;;;;;;;;4975426;28;20046;-85
2022/06/15 07:50:20;;;;;;;6.30;3.40;;;;;;;;;;4991616;28;20054;-86
2022/06/15 07:52:48;;;;;;;6.28;3.17;;;;;;;;;;4975598;28;20034;-86
2022/06/15 07:55:15;;;;;;;5.45;3.38;;;;;;;;;;4975642;28;20069;-84
2022/06/15 07:57:41;;;;;;;6.72;3.10;;;;;;;;;;4975252;28;20038;-86
2022/06/15 08:00:08;;;;;;;5.95;3.00;;;;;;;;;;4978081;28;20080;-86
2022/06/15 08:02:34;;;;;;;4.47;2.85;;;;;;;;;;4978284;28;20128;-86
2022/06/15 08:05:00;;;;;;;8.65;3.63;;;;;;;;;;4978343;28;20132;-84
2022/06/15 08:07:26;;;;;;;4.80;2.75;;;;;;;;;;4978470;28;20048;-87
2022/06/15 08:09:53;;;;;;;5.25;2.50;;;;;;;;;;4980532;28;20048;-87
2022/06/15 08:12:23;;;;;;;6.13;2.60;;;;;;;;;;4988401;28;20088;-85
2022/06/15 08:14:56;;;;;;;5.07;2.75;;;;;;;;;;4989351;28;20038;-87
2022/06/15 08:17:24;;;;;;;7.25;3.72;;;;;;;;;;4986672;28;20553;-86
2022/06/15 08:19:54;;;;;;;5.47;3.00;;;;;;;;;;4987513;28;20076;-85
2022/06/15 08:22:20;;;;;;;5.25;3.17;;;;;;;;;;4985696;28;20043;-85
2022/06/15 08:24:47;;;;;;;4.35;2.90;;;;;;;;;;4988885;28;20040;-87
2022/06/15 08:27:14;;;;;;;5.65;2.80;;;;;;;;;;5003835;28;20494;-87
2022/06/15 08:29:40;;;;;;;4.65;2.80;;;;;;;;;;4986480;28;20041;-87
2022/06/15 08:32:07;;;;;;;4.95;2.78;;;;;;;;;;5004766;28;20029;-86
2022/06/15 08:34:36;;;;;;;6.60;2.83;;;;;;;;;;4987234;28;20061;-87
2022/06/15 08:37:03;;;;;;;6.22;2.80;;;;;;;;;;4986339;28;20061;-85
2022/06/15 08:39:29;;;;;;;5.68;2.90;;;;;;;;;;5005246;28;20091;-85
2022/06/15 08:41:59;;;;;;;3.08;2.35;;;;;;;;;;4987499;28;20424;-87
2022/06/15 08:44:34;;;;;;;6.03;2.72;;;;;;;;;;4988862;28;20171;-85
2022/06/15 08:47:00;;;;;;;4.20;2.75;;;;;;;;;;4988071;28;20152;-85
2022/06/15 08:49:45;;;;;;;4.50;2.25;;;;;;;;;;5002815;28;20049;-87
2022/06/15 08:52:19;;;;;;;3.88;2.15;;;;;;;;;;4984223;28;20070;-88
2022/06/15 08:54:48;;;;;;;4.20;2.40;;;;;;;;;;4986608;28;20498;-87
2022/06/15 08:57:19;;;;;;;2.75;2.20;;;;;;;;;;4988896;28;20088;-85
2022/06/15 08:59:50;;;;;;;6.18;2.88;;;;;;;;;;4985877;28;20038;-86
2022/06/15 09:02:29;;;;;;;3.33;1.85;;;;;;;;;;4988860;28;20420;-84
2022/06/15 09:05:02;;;;;;;2.80;1.52;;;;;;;;;;4985658;28;20053;-86
2022/06/15 09:07:47;;;;;;;2.78;1.55;;;;;;;;;;5002740;28;20428;-85
2022/06/15 09:10:13;;;;;;;4.78;1.95;;;;;;;;;;5003107;28;20088;-87
2022/06/15 09:13:01;;;;;;;3.80;1.95;;;;;;;;;;4986324;28;20432;-85
2022/06/15 09:15:27;;;;;;;2.22;1.50;;;;;;;;;;4988666;28;20128;-85
2022/06/15 09:17:55;;;;;;;2.75;1.63;;;;;;;;;;4987152;28;20075;-86
2022/06/15 09:20:25;;;;;;;5.05;1.88;;;;;;;;;;5004436;28;20048;-87
2022/06/15 09:22:56;;;;;;;2.60;1.80;;;;;;;;;;4984252;28;20509;-87
2022/06/15 09:25:22;;;;;;;3.13;1.70;;;;;;;;;;4985692;28;20034;-87
2022/06/15 09:27:52;;;;;;;2.63;1.70;;;;;;;;;;4986312;28;20520;-88
2022/06/15 09:30:17;;;;;;;4.07;1.93;;;;;;;;;;5002170;28;20041;-86
2022/06/15 09:32:48;;;;;;;4.40;1.80;;;;;;;;;;4988093;28;20555;-85
2022/06/15 09:35:21;;;;;;;5.05;1.80;;;;;;;;;;5006940;28;20030;-86
2022/06/15 09:37:48;;;;;;;3.83;1.73;;;;;;;;;;4988789;28;20040;-85
2022/06/15 09:40:15;;;;;;;4.65;2.88;;;;;;;;;;4990556;28;20044;-86
2022/06/15 09:42:50;;;;;;;5.63;2.67;;;;;;;;;;4989567;28;20550;-86
2022/06/15 09:45:35;;;;;;;3.33;2.60;;;;;;;;;;4988042;28;20394;-85
2022/06/15 09:48:05;;;;;;;4.70;3.20;;;;;;;;;;4988598;28;20099;-83
2022/06/15 09:50:37;;;;;;;6.00;3.53;;;;;;;;;;4987485;28;20076;-85
2022/06/15 09:53:18;;;;;;;4.97;3.45;;;;;;;;;;4992455;28;20375;-84
2022/06/15 09:55:47;;;;;;;4.22;3.05;;;;;;;;;;4992436;28;20026;-85
2022/06/15 09:58:15;;;;;;;4.90;3.03;;;;;;;;;;4991532;28;20087;-85
2022/06/15 10:00:42;;;;;;;4.55;3.15;;;;;;;;;;4989403;28;20065;-87
2022/06/15 10:03:24;;;;;;;4.20;2.67;;;;;;;;;;4986927;28;20042;-87
2022/06/15 10:05:51;;;;;;;3.85;2.65;;;;;;;;;;5007348;28;20172;-82
2022/06/15 10:08:18;;;;;;;3.67;2.50;;;;;;;;;;4991525;28;20091;-84
2022/06/15 10:10:58;;;;;;;4.32;2.80;;;;;;;;;;4989028;28;20046;-85
2022/06/15 10:13:26;;;;;;;3.72;2.80;;;;;;;;;;5006457;28;20569;-86
2022/06/15 10:15:58;;;;;;;4.40;2.65;;;;;;;;;;5006195;28;20033;-85
2022/06/15 10:18:37;;;;;;;4.18;2.50;;;;;;;;;;4990695;28;20104;-87
2022/06/15 10:21:26;;;;;;;3.03;2.30;;;;;;;;;;4991010;28;20162;-87
2022/06/15 10:24:02;;;;;;;4.53;2.45;;;;;;;;;;4994688;28;20045;-87
2022/06/15 10:26:34;;;;;;;2.88;2.03;;;;;;;;;;5004244;28;20624;-85
2022/06/15 10:29:22;;;;;;;4.18;2.30;;;;;;;;;;4990315;28;20041;-88
2022/06/15 10:32:07;;;;;;;4.00;2.10;;;;;;;;;;4990408;28;20042;-85
2022/06/15 10:34:35;;;;;;;5.47;2.72;;;;;;;;;;5005707;28;20026;-83
2022/06/15 10:37:06;;;;;;;4.28;2.70;;;;;;;;;;4988865;28;20033;-84
2022/06/15 10:39:34;;;;;;;3.65;2.50;;;;;;;;;;4986391;28;20504;-86
2022/06/15 10:42:20;;;;;;;6.60;2.28;;;;;;;;;;4988484;28;20037;-86
2022/06/15 10:45:00;;;;;;;4.00;2.20;;;;;;;;;;4989811;28;20030;-87
2022/06/15 10:47:48;;;;;;;3.30;2.03;;;;;;;;;;4988149;28;20394;-85
2022/06/15 10:50:22;;;;;;;4.45;2.35;;;;;;;;;;4989347;28;20441;-88
2022/06/15 10:52:51;;;;;;;3.88;2.38;;;;;;;;;;5004773;28;20038;-88
2022/06/15 11:04:06;;;;;;;3.50;2.67;;;;;;;;;;5002702;28;20073;-85
2022/06/15 11:06:48;;;;;;;5.18;2.83;;;;;;;;;;5001528;28;20034;-86
2022/06/15 11:09:19;;;;;;;5.55;3.63;;;;;;;;;;5001819;28;20038;-83
2022/06/15 11:11:45;;;;;;;5.15;2.92;;;;;;;;;;4984148;28;20042;-87
2022/06/15 11:14:16;;;;;;;4.28;2.70;;;;;;;;;;5003374;28;20038;-85
2022/06/15 11:19:29;;;;;;;4.35;2.42;;;;;;;;;;5002840;28;20498;-86
2022/06/15 11:21:57;;;;;;;5.93;3.00;;;;;;;;;;4985499;28;20050;-86
2022/06/15 11:24:33;;;;;;;5.45;2.88;;;;;;;;;;5000512;28;20054;-86
2022/06/15 11:27:03;;;;;;;4.10;2.50;;;;;;;;;;5001003;28;20135;-83
2022/06/15 11:29:34;;;;;;;3.67;2.67;;;;;;;;;;5002935;28;20053;-87
2022/06/15 11:32:03;;;;;;;5.05;2.72;;;;;;;;;;4985759;28;20043;-85
2022/06/15 11:34:32;;;;;;;5.10;3.00;;;;;;;;;;5002276;28;20034;-86
2022/06/15 11:37:00;;;;;;;5.05;2.83;;;;;;;;;;4985392;28;20070;-86
2022/06/15 11:39:31;;;;;;;2.55;2.22;;;;;;;;;;4984166;28;20034;-87
2022/06/15 11:41:57;;;;;;;4.32;2.72;;;;;;;;;;4984658;28;20042;-86
2022/06/15 11:44:25;;;;;;;4.10;2.72;;;;;;;;;;4983368;28;20042;-86
2022/06/15 11:47:12;;;;;;;4.45;2.42;;;;;;;;;;4984065;28;20042;-87
2022/06/15 11:49:38;;;;;;;3.85;2.67;;;;;;;;;;4975595;28;20065;-87
2022/06/15 11:52:04;;;;;;;4.57;2.70;;;;;;;;;;4975446;28;20553;-85
2022/06/15 11:54:30;;;;;;;7.53;3.33;;;;;;;;;;4975381;28;20042;-86
2022/06/15 11:57:03;;;;;;;4.35;3.08;;;;;;;;;;4972167;28;20093;-86
2022/06/15 11:59:40;;;;;;;6.20;2.90;;;;;;;;;;4972345;28;20034;-86
2022/06/15 12:02:12;;;;;;;3.90;2.45;;;;;;;;;;4971519;28;20594;-86
2022/06/15 12:04:50;;;;;;;5.10;2.97;;;;;;;;;;4972188;28;20085;-85
2022/06/15 12:07:16;;;;;;;3.22;2.70;;;;;;;;;;4972489;28;20170;-86
2022/06/15 12:09:54;;;;;;;5.68;2.85;;;;;;;;;;4972250;28;20075;-84
2022/06/15 12:12:37;;;;;;;4.10;2.75;;;;;;;;;;4988053;28;20604;-87
2022/06/15 12:15:10;;;;;;;3.88;2.92;;;;;;;;;;4971739;28;20042;-86
2022/06/15 12:17:38;;;;;;;4.22;3.00;;;;;;;;;;4971938;28;20046;-85
2022/06/15 12:20:14;;;;;;;4.93;3.28;;;;;;;;;;4971560;28;20077;-85
2022/06/15 12:22:47;;;;;;;4.97;3.47;;;;;;;;;;4971792;28;20049;-87
2022/06/15 12:25:16;;;;;;;5.75;3.55;;;;;;;;;;4971624;28;20046;-83
2022/06/15 12:27:51;;;;;;;4.50;3.15;;;;;;;;;;4971677;28;20410;-86
2022/06/15 12:30:29;;;;;;;4.97;3.35;;;;;;;;;;4971801;28;20042;-85
2022/06/15 12:33:08;;;;;;;4.68;3.28;;;;;;;;;;4972011;28;20502;-85
2022/06/15 12:35:39;;;;;;;5.70;3.42;;;;;;;;;;4988479;28;20343;-84
2022/06/15 12:38:18;;;;;;;4.72;3.22;;;;;;;;;;4972192;28;20096;-84
2022/06/15 12:40:52;;;;;;;3.97;3.50;;;;;;;;;;4972486;28;20402;-82
2022/06/15 12:43:27;;;;;;;4.65;3.50;;;;;;;;;;4988822;28;20050;-87
2022/06/15 12:45:58;;;;;;;4.32;3.25;;;;;;;;;;4971797;28;20042;-85
2022/06/15 12:48:33;;;;;;;4.45;3.58;;;;;;;;;;4971757;28;20058;-85
2022/06/15 12:51:09;;;;;;;6.47;3.50;;;;;;;;;;4972491;28;20120;-87
2022/06/15 12:53:42;;;;;;;4.18;3.35;;;;;;;;;;4972493;28;20142;-87
2022/06/15 12:56:07;;;;;;;3.88;3.47;;;;;;;;;;4971216;28;20042;-85
2022/06/15 12:58:49;;;;;;;4.50;3.47;;;;;;;;;;4973895;28;20043;-82
2022/06/15 13:01:19;;;;;;;4.32;2.88;;;;;;;;;;4976091;28;20058;-84
2022/06/15 13:03:55;;;;;;;5.00;3.20;;;;;;;;;;4976177;28;20449;-86
2022/06/15 13:06:27;;;;;;;5.60;3.10;;;;;;;;;;4971961;28;20578;-83
2022/06/15 13:09:08;;;;;;;3.95;3.40;;;;;;;;;;4992252;28;20062;-89
2022/06/15 13:11:45;;;;;;;4.63;3.28;;;;;;;;;;4991726;28;20449;-87
2022/06/15 13:14:15;;;;;;;5.57;3.20;;;;;;;;;;4976022;28;20038;-81
2022/06/15 13:16:44;;;;;;;4.22;3.05;;;;;;;;;;4995482;28;20124;-84
2022/06/15 13:19:26;;;;;;;4.22;3.40;;;;;;;;;;4995290;28;20064;-83
2022/06/15 13:21:56;;;;;;;8.23;3.63;;;;;;;;;;4995261;28;20042;-83
2022/06/15 13:24:22;;;;;;;;;;;;;;;;;;4995234;28;20506;-83
2022/06/15 13:26:52;;;;;;;4.93;3.45;;;;;;;;;;4994647;28;19928;-86
2022/06/15 13:29:20;;;;;;;2.83;2.53;;;;;;;;;;4978274;28;20057;-88
2022/06/15 13:31:49;;;;;;;4.25;3.40;;;;;;;;;;4978850;28;20046;-88
2022/06/15 13:34:16;;;;;;;5.70;3.60;;;;;;;;;;4978569;28;20048;-82
2022/06/15 13:36:43;;;;;;;5.57;3.30;;;;;;;;;;4977988;28;20050;-81
2022/06/15 13:39:26;;;;;;;7.78;3.33;;;;;;;;;;4979080;28;20053;-83
2022/06/15 13:42:11;;;;;;;4.20;3.40;;;;;;;;;;4979350;28;20042;-83
2022/06/15 13:44:51;;;;;;;4.32;3.47;;;;;;;;;;4979200;28;20398;-83
2022/06/15 13:47:18;;;;;;;4.38;2.60;;;;;;;;;;4979061;28;20088;-83
2022/06/15 13:49:45;;;;;;;5.47;3.30;;;;;;;;;;4979249;28;20038;-83
2022/06/15 13:52:14;;;;;;;3.88;3.42;;;;;;;;;;4992744;28;20471;-82
2022/06/15 13:54:59;;;;;;;6.43;3.35;;;;;;;;;;4998411;28;20042;-81
2022/06/15 13:57:40;;;;;;;6.22;3.03;;;;;;;;;;4997702;28;20475;-86
2022/06/15 14:00:12;;;;;;;3.25;2.95;;;;;;;;;;5016587;28;20049;-88
2022/06/15 14:02:57;;;;;;;4.55;3.13;;;;;;;;;;4998062;28;20620;-85
2022/06/15 14:05:35;;;;;;;4.47;3.35;;;;;;;;;;4997036;28;20096;-82
2022/06/15 14:08:07;;;;;;;3.55;2.67;;;;;;;;;;5017282;28;20052;-79
2022/06/15 14:10:33;;;;;;;6.80;3.00;;;;;;;;;;5000056;28;20041;-80
2022/06/15 14:13:09;;;;;;;5.95;3.28;;;;;;;;;;4999691;28;20053;-83
2022/06/15 14:15:41;;;;;;;7.78;3.33;;;;;;;;;;5017752;28;20045;-83
2022/06/15 14:18:20;;;;;;;4.57;3.38;;;;;;;;;;5018670;28;20087;-88
2022/06/15 14:20:47;;;;;;;2.83;2.45;;;;;;;;;;4998614;28;20034;-83
2022/06/15 14:23:46;;;;;;;3.95;2.58;;;;;;;;;;4998044;28;20049;-88
2022/06/15 14:26:14;;;;;;;5.43;2.92;;;;;;;;;;4929638;28;20049;-89
2022/06/15 14:28:48;;;;;;;4.00;2.45;;;;;;;;;;5009109;28;20120;-80
2022/06/15 14:31:16;;;;;;;4.75;2.60;;;;;;;;;;4994636;28;20100;-84
2022/06/15 14:33:42;;;;;;;3.90;2.88;;;;;;;;;;4995964;28;20050;-85
2022/06/15 14:36:09;;;;;;;3.25;2.67;;;;;;;;;;5000627;28;20037;-86
2022/06/15 14:38:35;;;;;;;5.82;3.35;;;;;;;;;;5001299;28;20056;-84
2022/06/15 14:41:21;;;;;;;4.70;3.55;;;;;;;;;;5000688;28;20042;-84
2022/06/15 14:43:50;;;;;;;9.15;2.88;;;;;;;;;;5000430;28;20485;-85
2022/06/15 14:46:18;;;;;;;4.60;2.47;;;;;;;;;;4999536;28;20500;-87
2022/06/15 14:48:47;;;;;;;9.38;3.00;;;;;;;;;;4999947;28;20045;-87
2022/06/15 14:51:15;;;;;;;2.83;2.53;;;;;;;;;;5000264;28;20408;-83
2022/06/15 14:54:02;;;;;;;5.07;3.17;;;;;;;;;;5000321;28;20041;-84
2022/06/15 14:56:30;;;;;;;4.35;2.92;;;;;;;;;;4992652;28;20060;-84
2022/06/15 14:59:23;;;;;;;5.55;2.47;;;;;;;;;;4999058;28;20039;-82
2022/06/15 15:01:57;;;;;;;7.25;2.78;;;;;;;;;;4997279;28;20057;-84
2022/06/15 15:04:24;;;;;;;4.22;3.72;;;;;;;;;;5015874;28;20095;-85
2022/06/15 15:06:51;;;;;;;4.75;3.22;;;;;;;;;;5000444;28;20499;-89
2022/06/15 15:09:18;;;;;;;5.63;2.75;;;;;;;;;;4982700;28;20037;-85
2022/06/15 15:11:45;;;;;;;4.28;2.90;;;;;;;;;;4980066;28;20410;-84
2022/06/15 15:14:15;;;;;;;5.18;3.03;;;;;;;;;;4980685;28;20041;-86
2022/06/15 15:17:02;;;;;;;3.35;2.65;;;;;;;;;;4980487;28;20488;-87